Time;durP1;ratioP1;P1;durP2;ratioP2;P2;SDS_P1;SDS_P2;PMS_P1;PMS_P2;Temp;Humidity;BMP_temperature;BMP_pressure;BME280_temperature;BME280_humidity;BME280_pressure;Samples;Min_cycle;Max_cycle;Signal;HPM_P1;HPM_P2
2022/03/06 00:00:24;;;;;;;32.88;18.95;;;4.60;90.80;;;;;;5019051;28;20129;-78
2022/03/06 00:03:11;;;;;;;30.13;19.55;;;4.60;90.80;;;;;;5097990;27;20019;-78
2022/03/06 00:05:49;;;;;;;28.95;18.30;;;4.70;90.80;;;;;;5099789;27;20618;-79
2022/03/06 00:08:24;;;;;;;28.33;17.17;;;4.60;91.00;;;;;;5119759;27;20022;-81
2022/03/06 00:11:15;;;;;;;26.98;16.50;;;4.60;91.10;;;;;;5102779;27;20057;-80
2022/03/06 00:14:09;;;;;;;33.15;19.35;;;4.60;91.00;;;;;;5113322;27;20102;-80
2022/03/06 00:30:45;;;;;;;30.42;17.58;;;4.70;90.60;;;;;;5036058;28;20099;-80
2022/03/06 00:34:04;;;;;;;28.70;18.83;;;4.70;90.70;;;;;;5015028;28;20079;-80
2022/03/06 00:37:20;;;;;;;;;;;;;;;;;;;;;
2022/03/06 00:40:12;;;;;;;28.65;17.05;;;4.60;91.40;;;;;;5014501;28;20033;-80
2022/03/06 00:43:18;;;;;;;;;;;;;;;;;;;;;
2022/03/06 00:57:18;;;;;;;29.98;17.20;;;4.50;91.70;;;;;;4973912;28;20100;-79
2022/03/06 01:00:17;;;;;;;32.60;17.75;;;4.50;92.00;;;;;;4984479;28;20041;-81
2022/03/06 01:03:47;;;;;;;36.92;19.52;;;4.50;91.80;;;;;;4975265;28;20437;-81
2022/03/06 01:20:25;;;;;;;38.08;19.58;;;4.40;92.70;;;;;;4878309;29;20101;-80
2022/03/06 01:22:55;;;;;;;31.73;18.77;;;4.40;92.90;;;;;;4878176;29;20033;-80
2022/03/06 01:25:50;;;;;;;38.17;20.88;;;4.40;93.10;;;;;;4941443;28;20774;-79
2022/03/06 01:32:16;;;;;;;35.45;19.77;;;4.40;93.10;;;;;;5098645;28;20051;-80
2022/03/06 02:03:15;;;;;;;;;;;;;;;;;;;;;
2022/03/06 02:26:06;;;;;;;34.88;20.33;;;4.10;95.70;;;;;;4984286;28;20066;-80
2022/03/06 03:53:22;;;;;;;31.98;19.42;;;4.10;96.90;;;;;;4796375;29;20520;-79
2022/03/06 05:13:09;;;;;;;;;;;;;;;;;;;;;
2022/03/06 05:30:21;;;;;;;;;;;;;;;;;;;;;
2022/03/06 05:37:12;;;;;;;25.27;17.02;;;3.80;98.70;;;;;;4841154;29;20042;-79
2022/03/06 05:44:11;;;;;;;;;;;;;;;;;;;;;
2022/03/06 05:50:54;;;;;;;;;;;;;;;;;;;;;
2022/03/06 05:54:19;;;;;;;;;;;;;;;;;;;;;
2022/03/06 05:57:13;;;;;;;;;;;;;;;;;;;;;
2022/03/06 06:11:10;;;;;;;26.77;14.27;;;4.00;97.00;;;;;;4826753;29;20502;-79
2022/03/06 06:14:16;;;;;;;24.90;13.55;;;4.10;97.00;;;;;;4899805;29;20035;-79
2022/03/06 06:17:59;;;;;;;25.52;15.60;;;4.20;96.70;;;;;;4956411;28;20078;-80
2022/03/06 06:24:43;;;;;;;25.63;14.85;;;4.30;96.40;;;;;;4998592;28;20061;-80
2022/03/06 06:27:48;;;;;;;25.05;14.80;;;4.40;96.30;;;;;;5056516;28;20037;-80
2022/03/06 06:37:14;;;;;;;21.20;14.55;;;4.40;96.60;;;;;;5002414;28;20130;-80
2022/03/06 06:40:21;;;;;;;21.58;14.43;;;4.50;96.40;;;;;;5058572;28;20043;-80
2022/03/06 06:43:02;;;;;;;25.95;15.60;;;4.50;96.20;;;;;;5052559;28;20101;-79
2022/03/06 06:45:34;;;;;;;21.15;13.80;;;4.60;96.00;;;;;;5092418;28;20055;-80
2022/03/06 06:48:03;;;;;;;25.45;14.27;;;4.70;95.60;;;;;;5100981;28;20020;-80
2022/03/06 06:50:53;;;;;;;30.60;14.45;;;4.70;95.10;;;;;;5099383;28;20056;-80
2022/03/06 06:53:19;;;;;;;26.23;15.05;;;4.80;95.00;;;;;;5104988;28;20051;-80
2022/03/06 06:55:54;;;;;;;26.25;14.18;;;4.90;95.00;;;;;;5103703;28;20613;-79
2022/03/06 06:58:55;;;;;;;24.00;13.90;;;5.00;94.50;;;;;;5104636;28;20026;-79
2022/03/06 07:01:54;;;;;;;21.77;13.60;;;5.10;94.50;;;;;;5103431;28;20030;-79
2022/03/06 07:04:19;;;;;;;24.27;13.85;;;5.20;93.60;;;;;;5098985;28;20449;-79
2022/03/06 07:06:45;;;;;;;27.55;14.23;;;5.30;93.30;;;;;;5098926;28;20047;-80
2022/03/06 07:09:34;;;;;;;11.07;7.28;;;5.40;93.20;;;;;;5099269;28;20028;-79
2022/03/06 07:12:35;;;;;;;18.65;11.65;;;5.40;92.70;;;;;;5084423;28;20028;-80
2022/03/06 07:15:45;;;;;;;21.65;12.43;;;5.40;92.50;;;;;;5083503;28;20032;-79
2022/03/06 07:18:09;;;;;;;;;;;5.40;91.70;;;;;;5096262;28;20035;-80
2022/03/06 07:20:41;;;;;;;21.58;12.38;;;5.50;91.40;;;;;;5099131;28;19933;-80
2022/03/06 07:23:07;;;;;;;20.00;13.35;;;5.50;91.20;;;;;;5100848;28;20035;-80
2022/03/06 07:25:36;;;;;;;20.88;12.90;;;5.60;91.10;;;;;;5083256;28;20032;-80
2022/03/06 07:28:15;;;;;;;18.88;12.45;;;5.70;91.00;;;;;;5096853;28;20024;-80
2022/03/06 07:30:44;;;;;;;22.90;12.98;;;5.80;90.40;;;;;;5104602;28;20040;-80
2022/03/06 07:33:10;;;;;;;21.40;12.63;;;5.80;90.00;;;;;;5101685;28;20114;-79
2022/03/06 07:35:36;;;;;;;17.30;12.20;;;5.90;90.00;;;;;;5099152;28;20020;-79
2022/03/06 07:38:12;;;;;;;18.90;12.52;;;5.90;88.90;;;;;;5087159;28;20635;-78
2022/03/06 07:40:44;;;;;;;17.95;12.07;;;6.00;88.80;;;;;;5104097;28;20031;-79
2022/03/06 07:43:15;;;;;;;16.67;11.35;;;6.00;89.00;;;;;;5103220;28;20024;-79
2022/03/06 07:45:46;;;;;;;15.75;10.88;;;6.00;87.40;;;;;;5098907;28;20115;-78
2022/03/06 07:48:15;;;;;;;18.23;11.18;;;6.10;87.30;;;;;;5102423;28;20031;-80
2022/03/06 07:50:41;;;;;;;17.98;11.68;;;6.20;87.70;;;;;;5098730;28;20487;-80
2022/03/06 07:53:13;;;;;;;19.35;11.50;;;6.30;87.10;;;;;;5103136;28;20031;-80
2022/03/06 07:55:42;;;;;;;;;;;6.40;87.60;;;;;;5080540;28;20046;-80
2022/03/06 07:58:08;;;;;;;19.15;12.32;;;6.50;86.40;;;;;;5100061;28;19904;-80
2022/03/06 08:00:43;;;;;;;17.48;11.15;;;6.70;85.20;;;;;;5098854;28;20025;-85
2022/03/06 08:03:29;;;;;;;17.00;12.05;;;6.80;85.00;;;;;;5102065;28;20020;-81
2022/03/06 08:05:55;;;;;;;16.75;12.18;;;6.70;84.00;;;;;;5101201;28;20024;-79
2022/03/06 08:08:22;;;;;;;19.30;12.10;;;6.70;84.40;;;;;;5102740;28;20046;-83
2022/03/06 08:10:59;;;;;;;21.83;12.07;;;6.80;84.90;;;;;;5100106;28;20040;-81
2022/03/06 08:13:25;;;;;;;16.92;11.05;;;6.90;84.00;;;;;;5101642;28;20024;-82
2022/03/06 08:16:00;;;;;;;20.38;12.27;;;7.10;84.50;;;;;;5105558;28;20488;-76
2022/03/06 08:18:57;;;;;;;18.90;11.63;;;7.20;84.10;;;;;;5098932;28;20169;-88
2022/03/06 08:21:52;;;;;;;24.60;12.45;;;7.20;85.10;;;;;;5088399;28;20036;-80
2022/03/06 08:24:28;;;;;;;19.70;12.68;;;7.10;81.30;;;;;;5081209;28;20118;-80
2022/03/06 08:26:56;;;;;;;20.85;10.15;;;7.00;82.40;;;;;;5100552;28;20093;-80
2022/03/06 08:29:25;;;;;;;15.75;11.82;;;7.00;83.00;;;;;;5099056;28;20019;-88
2022/03/06 08:31:58;;;;;;;19.38;12.07;;;7.20;81.70;;;;;;5102146;28;20028;-77
2022/03/06 08:34:24;;;;;;;17.75;11.63;;;7.30;82.60;;;;;;5097957;28;20158;-77
2022/03/06 08:36:50;;;;;;;14.32;10.13;;;7.20;82.20;;;;;;5109815;27;20185;-79
2022/03/06 08:39:15;;;;;;;17.90;11.13;;;7.30;82.10;;;;;;5123218;27;20019;-77
2022/03/06 08:41:42;;;;;;;17.08;11.63;;;7.50;80.80;;;;;;5123309;27;20570;-80
2022/03/06 08:44:08;;;;;;;15.95;10.82;;;7.60;80.60;;;;;;5124680;27;20030;-81
2022/03/06 08:46:34;;;;;;;15.27;11.02;;;7.60;80.70;;;;;;5120475;27;20023;-77
2022/03/06 08:49:05;;;;;;;16.83;11.25;;;7.70;80.50;;;;;;5124944;27;20027;-78
2022/03/06 08:51:35;;;;;;;15.52;11.20;;;7.50;80.70;;;;;;5123461;27;20045;-76
2022/03/06 08:54:01;;;;;;;18.27;11.25;;;7.40;79.70;;;;;;5123039;27;20072;-77
2022/03/06 08:56:28;;;;;;;20.13;12.25;;;7.30;78.60;;;;;;5101149;27;20032;-79
2022/03/06 08:58:55;;;;;;;17.98;11.38;;;7.40;82.40;;;;;;5125229;27;20019;-77
2022/03/06 09:01:20;;;;;;;15.80;10.80;;;7.60;80.10;;;;;;5118466;27;20034;-75
2022/03/06 09:03:46;;;;;;;16.38;10.88;;;7.80;81.10;;;;;;5126104;28;20389;-77
2022/03/06 09:06:12;;;;;;;18.05;11.70;;;7.90;79.60;;;;;;5100023;28;20031;-78
2022/03/06 09:08:37;;;;;;;15.02;10.43;;;8.10;78.90;;;;;;5109667;28;20055;-79
2022/03/06 09:11:05;;;;;;;16.35;11.15;;;7.70;77.70;;;;;;5124278;28;20474;-81
2022/03/06 09:13:34;;;;;;;15.02;9.05;;;7.70;78.90;;;;;;5114841;28;20023;-78
2022/03/06 09:16:01;;;;;;;19.75;10.98;;;7.50;77.50;;;;;;5113941;28;20031;-80
2022/03/06 09:18:30;;;;;;;14.43;10.18;;;7.30;79.70;;;;;;5099960;28;20019;-78
2022/03/06 09:20:57;;;;;;;18.90;11.05;;;7.50;78.70;;;;;;5120776;27;20089;-84
2022/03/06 09:23:22;;;;;;;16.25;10.18;;;7.50;78.30;;;;;;5105346;28;20068;-80
2022/03/06 09:25:48;;;;;;;17.80;10.38;;;7.50;79.60;;;;;;5102913;28;20031;-77
2022/03/06 09:28:14;;;;;;;14.18;10.27;;;7.60;79.70;;;;;;5122113;27;20409;-77
2022/03/06 09:30:41;;;;;;;17.10;10.07;;;7.80;78.80;;;;;;5123868;27;20497;-77
2022/03/06 09:33:07;;;;;;;16.55;10.48;;;7.70;76.50;;;;;;5124913;27;20026;-77
2022/03/06 09:35:32;;;;;;;14.93;9.65;;;7.70;76.70;;;;;;5127556;27;20032;-77
2022/03/06 09:37:58;;;;;;;20.77;9.98;;;7.40;75.50;;;;;;5126281;27;20512;-77
2022/03/06 09:40:24;;;;;;;17.38;10.23;;;7.30;76.40;;;;;;5121883;27;20527;-77
2022/03/06 09:42:53;;;;;;;19.45;10.75;;;7.20;76.00;;;;;;5122954;27;20024;-76
2022/03/06 09:45:23;;;;;;;15.82;10.25;;;7.30;77.00;;;;;;5108537;27;20096;-77
2022/03/06 09:47:53;;;;;;;15.25;10.30;;;7.60;76.30;;;;;;5125772;27;20023;-77
2022/03/06 09:50:20;;;;;;;12.63;8.43;;;7.70;74.60;;;;;;5092188;27;20704;-77
2022/03/06 09:52:45;;;;;;;12.82;8.98;;;7.90;75.70;;;;;;5096597;28;20023;-77
2022/03/06 09:55:12;;;;;;;14.68;9.90;;;8.10;72.60;;;;;;5111491;27;20491;-77
2022/03/06 09:57:38;;;;;;;12.80;9.50;;;7.90;72.10;;;;;;5121867;27;20016;-77
2022/03/06 10:00:07;;;;;;;12.43;9.18;;;8.00;71.70;;;;;;5105270;27;20416;-77
2022/03/06 10:02:51;;;;;;;17.05;10.13;;;7.90;72.50;;;;;;5122137;27;20015;-77
2022/03/06 10:05:39;;;;;;;15.48;9.65;;;8.00;72.50;;;;;;5110609;27;20028;-77
2022/03/06 10:08:27;;;;;;;13.25;8.68;;;8.00;72.40;;;;;;5123882;27;20024;-77
2022/03/06 10:10:57;;;;;;;18.38;9.10;;;8.10;73.60;;;;;;5128306;27;20031;-77
2022/03/06 10:13:37;;;;;;;15.60;9.77;;;8.20;71.10;;;;;;5123465;27;20018;-78
2022/03/06 10:16:18;;;;;;;21.80;10.25;;;8.10;73.40;;;;;;5122885;27;20024;-78
2022/03/06 10:18:49;;;;;;;17.42;9.88;;;8.30;72.40;;;;;;5115449;27;20020;-78
2022/03/06 10:21:21;;;;;;;15.93;9.75;;;8.20;71.60;;;;;;5103210;27;20062;-77
2022/03/06 10:23:53;;;;;;;16.10;10.13;;;8.10;72.80;;;;;;5105380;28;20655;-78
2022/03/06 10:26:21;;;;;;;18.00;10.55;;;8.20;72.40;;;;;;5103633;27;20516;-77
2022/03/06 10:29:02;;;;;;;15.25;9.68;;;8.10;72.30;;;;;;5112982;27;20042;-76
2022/03/06 10:31:33;;;;;;;17.60;10.70;;;8.10;71.10;;;;;;5126334;27;20037;-78
2022/03/06 10:34:03;;;;;;;16.58;9.38;;;8.20;72.90;;;;;;5125451;27;20019;-78
2022/03/06 10:37:01;;;;;;;16.33;10.20;;;8.50;71.60;;;;;;5103661;27;20137;-78
2022/03/06 10:39:30;;;;;;;13.95;9.23;;;8.40;70.50;;;;;;5107909;27;20435;-77
2022/03/06 10:41:56;;;;;;;16.00;9.50;;;8.60;69.90;;;;;;5122804;27;20037;-77
2022/03/06 10:44:45;;;;;;;13.65;9.52;;;8.40;69.30;;;;;;5125452;27;20542;-77
2022/03/06 10:47:11;;;;;;;13.90;9.55;;;8.50;70.50;;;;;;5120840;27;20102;-77
2022/03/06 10:49:37;;;;;;;14.75;9.85;;;8.60;69.00;;;;;;5101306;27;20023;-78
2022/03/06 10:52:19;;;;;;;15.20;9.60;;;8.50;69.50;;;;;;5123957;27;20050;-78
2022/03/06 10:54:53;;;;;;;14.73;9.68;;;8.70;69.40;;;;;;5102808;27;20505;-77
2022/03/06 10:57:21;;;;;;;16.17;9.77;;;9.00;69.10;;;;;;5124111;27;20481;-78
2022/03/06 10:59:48;;;;;;;16.17;9.35;;;9.20;71.90;;;;;;5117666;27;20047;-77
2022/03/06 11:02:17;;;;;;;11.77;8.05;;;9.40;69.50;;;;;;5103930;27;20079;-77
2022/03/06 11:04:46;;;;;;;12.85;9.07;;;9.20;68.60;;;;;;5120859;27;20026;-77
2022/03/06 11:07:12;;;;;;;15.65;11.02;;;8.80;69.40;;;;;;5122982;27;20019;-78
2022/03/06 11:09:39;;;;;;;14.52;9.60;;;8.80;71.10;;;;;;5098452;27;20067;-77
2022/03/06 11:12:06;;;;;;;19.15;10.32;;;8.80;71.20;;;;;;5123652;27;20019;-77
2022/03/06 11:14:32;;;;;;;15.55;9.77;;;8.80;71.00;;;;;;5121663;27;20030;-77
2022/03/06 11:16:59;;;;;;;13.95;10.40;;;8.80;69.70;;;;;;5122694;27;20077;-77
2022/03/06 11:19:26;;;;;;;15.27;10.18;;;8.90;70.00;;;;;;5121927;27;20038;-77
2022/03/06 11:22:02;;;;;;;13.25;10.15;;;9.10;70.70;;;;;;5122642;27;20044;-77
2022/03/06 11:24:34;;;;;;;15.85;9.85;;;9.10;68.90;;;;;;5125548;27;20618;-77
2022/03/06 11:27:21;;;;;;;14.38;10.23;;;9.30;69.00;;;;;;5122887;27;20117;-77
2022/03/06 11:30:28;;;;;;;13.77;9.93;;;9.30;70.10;;;;;;5101864;27;20027;-77
2022/03/06 11:33:07;;;;;;;18.95;10.52;;;9.40;68.90;;;;;;5114727;27;20382;-77
2022/03/06 11:35:39;;;;;;;13.20;10.00;;;9.70;68.80;;;;;;5106835;28;20038;-78
2022/03/06 11:38:06;;;;;;;14.17;9.20;;;9.60;69.40;;;;;;5123548;27;20047;-78
2022/03/06 11:40:45;;;;;;;18.58;10.25;;;9.80;68.90;;;;;;5099962;28;20027;-78
2022/03/06 11:43:23;;;;;;;16.58;10.20;;;9.90;68.10;;;;;;5123425;27;20019;-77
2022/03/06 11:45:59;;;;;;;18.17;11.27;;;9.20;68.50;;;;;;5119303;27;20397;-78
2022/03/06 11:48:48;;;;;;;14.32;9.00;;;9.40;70.30;;;;;;5124744;27;20023;-78
2022/03/06 11:51:22;;;;;;;12.13;7.95;;;9.60;68.90;;;;;;5114211;27;20067;-77
2022/03/06 11:53:48;;;;;;;15.82;9.25;;;9.30;69.20;;;;;;5122657;27;20027;-77
2022/03/06 11:56:32;;;;;;;16.02;8.90;;;9.30;69.30;;;;;;5100919;28;20084;-77
2022/03/06 11:59:07;;;;;;;22.13;8.77;;;9.20;69.20;;;;;;5120291;27;20023;-77
2022/03/06 12:01:40;;;;;;;17.27;8.63;;;9.20;68.40;;;;;;5120346;27;20066;-77
2022/03/06 12:04:24;;;;;;;16.38;10.20;;;8.80;69.30;;;;;;5120635;27;20020;-85
2022/03/06 12:06:53;;;;;;;17.92;8.52;;;8.70;70.80;;;;;;5104123;27;20019;-85
2022/03/06 12:09:37;;;;;;;14.57;10.07;;;8.80;70.70;;;;;;5101964;27;20024;-80
2022/03/06 12:12:07;;;;;;;14.25;9.38;;;9.20;70.30;;;;;;5102296;27;20043;-79
2022/03/06 12:14:46;;;;;;;12.60;8.82;;;9.30;69.10;;;;;;5124186;27;20430;-82
2022/03/06 12:17:15;;;;;;;12.75;8.95;;;9.40;68.30;;;;;;5119464;27;20077;-81
2022/03/06 12:20:25;;;;;;;13.32;9.13;;;9.70;67.90;;;;;;5100739;28;20024;-81
2022/03/06 12:23:02;;;;;;;15.93;9.13;;;9.90;66.40;;;;;;5097848;27;20033;-81
2022/03/06 12:25:33;;;;;;;12.20;8.23;;;10.20;66.10;;;;;;5099654;27;20038;-81
2022/03/06 12:28:10;;;;;;;15.10;9.80;;;10.70;65.80;;;;;;5128263;27;20026;-82
2022/03/06 12:31:14;;;;;;;14.73;9.30;;;10.80;64.40;;;;;;5099779;28;20486;-82
2022/03/06 12:33:42;;;;;;;;;;;10.40;64.50;;;;;;5074654;27;20035;-81
2022/03/06 12:36:21;;;;;;;10.38;8.15;;;10.60;65.30;;;;;;5117049;27;19950;-82
2022/03/06 12:38:52;;;;;;;10.48;8.35;;;11.50;61.60;;;;;;5113440;27;20019;-82
2022/03/06 12:41:19;;;;;;;12.25;8.52;;;11.60;61.70;;;;;;5100976;28;20024;-82
2022/03/06 12:43:56;;;;;;;11.85;7.75;;;12.60;59.60;;;;;;5126096;27;20015;-81
2022/03/06 12:46:21;;;;;;;15.00;8.30;;;13.00;58.00;;;;;;5124423;27;20502;-81
2022/03/06 12:48:51;;;;;;;12.57;8.85;;;14.10;57.70;;;;;;5122194;27;20034;-81
2022/03/06 12:51:34;;;;;;;12.57;8.38;;;14.80;55.80;;;;;;5118477;27;20130;-82
2022/03/06 12:54:18;;;;;;;13.45;7.85;;;15.90;53.60;;;;;;5128299;27;20430;-82
2022/03/06 12:56:57;;;;;;;12.38;7.63;;;15.60;52.20;;;;;;5118371;28;20019;-82
2022/03/06 12:59:24;;;;;;;12.30;8.75;;;15.60;51.80;;;;;;5122920;27;20024;-81
2022/03/06 13:01:50;;;;;;;17.80;8.73;;;15.40;52.90;;;;;;5120720;27;20020;-81
2022/03/06 13:04:17;;;;;;;9.23;7.07;;;15.90;52.70;;;;;;5119428;28;20032;-85
2022/03/06 13:06:43;;;;;;;10.63;7.55;;;15.10;52.80;;;;;;5111172;28;20019;-81
2022/03/06 13:09:20;;;;;;;12.43;9.25;;;15.00;54.50;;;;;;5121548;28;20043;-82
2022/03/06 13:11:52;;;;;;;15.90;9.55;;;15.40;55.30;;;;;;5099924;28;20031;-81
2022/03/06 13:14:41;;;;;;;15.27;10.13;;;15.50;54.30;;;;;;5118438;28;20019;-81
2022/03/06 13:17:12;;;;;;;16.50;9.10;;;14.60;55.90;;;;;;5118085;27;20020;-81
2022/03/06 13:19:52;;;;;;;14.20;9.57;;;14.80;55.90;;;;;;5119188;27;20020;-82
2022/03/06 13:22:20;;;;;;;12.88;6.60;;;15.80;54.80;;;;;;5121889;27;20020;-81
2022/03/06 13:24:52;;;;;;;14.25;9.30;;;15.00;53.70;;;;;;5118713;27;20050;-80
2022/03/06 13:27:30;;;;;;;13.32;8.68;;;14.30;55.00;;;;;;5121082;28;20020;-80
2022/03/06 13:33:30;;;;;;;14.65;9.13;;;13.80;56.70;;;;;;5041959;28;20061;-81
2022/03/06 13:35:56;;;;;;;14.60;9.13;;;13.90;55.40;;;;;;5040933;28;20033;-82
2022/03/06 13:38:45;;;;;;;15.57;9.80;;;13.90;55.50;;;;;;5084542;28;20024;-81
2022/03/06 13:41:36;;;;;;;14.40;10.05;;;15.00;55.20;;;;;;5099393;28;20027;-82
2022/03/06 13:44:06;;;;;;;11.85;8.45;;;15.00;53.80;;;;;;5115008;27;20134;-81
2022/03/06 13:46:37;;;;;;;11.57;8.68;;;15.10;53.80;;;;;;5120267;27;21043;-81
2022/03/06 13:49:17;;;;;;;12.75;9.18;;;14.80;53.30;;;;;;5118706;28;20015;-82
2022/03/06 13:51:52;;;;;;;11.68;9.32;;;14.80;54.30;;;;;;5100910;28;20044;-82
2022/03/06 13:54:18;;;;;;;15.20;8.55;;;16.10;52.70;;;;;;5117123;28;20473;-82
2022/03/06 13:56:47;;;;;;;10.15;7.75;;;15.60;52.90;;;;;;5118405;28;20015;-81
2022/03/06 13:59:36;;;;;;;13.73;9.10;;;14.50;53.20;;;;;;5114848;28;20058;-81
2022/03/06 14:02:10;;;;;;;10.68;8.55;;;14.60;53.40;;;;;;5115379;28;20019;-81
2022/03/06 14:04:37;;;;;;;12.35;8.20;;;15.00;52.90;;;;;;5098855;28;20012;-81
2022/03/06 14:07:15;;;;;;;14.30;8.70;;;15.00;52.20;;;;;;5120059;27;20031;-81
2022/03/06 14:10:06;;;;;;;;;;;;;;;;;;;;;
2022/03/06 14:12:45;;;;;;;10.68;8.38;;;16.20;51.40;;;;;;5117577;27;20429;-81
2022/03/06 14:15:26;;;;;;;11.40;8.75;;;17.40;49.80;;;;;;5116999;28;20023;-82
2022/03/06 14:17:53;;;;;;;17.33;9.45;;;18.20;48.10;;;;;;5105929;27;20022;-81
2022/03/06 14:20:24;;;;;;;11.23;9.02;;;17.00;49.40;;;;;;5111600;27;20228;-81
2022/03/06 14:22:55;;;;;;;12.57;9.05;;;16.40;50.30;;;;;;5122382;27;20026;-82
2022/03/06 14:25:30;;;;;;;12.02;7.60;;;17.30;49.70;;;;;;5112012;27;20030;-81
2022/03/06 14:28:09;;;;;;;10.77;8.65;;;17.80;48.20;;;;;;5125201;27;20397;-81
2022/03/06 14:30:34;;;;;;;10.93;8.77;;;17.90;49.00;;;;;;5102633;28;20039;-82
2022/03/06 14:33:02;;;;;;;10.27;8.93;;;17.90;48.60;;;;;;5124926;27;20019;-81
2022/03/06 14:35:37;;;;;;;12.02;8.75;;;18.30;48.40;;;;;;5123723;27;20061;-82
2022/03/06 14:38:04;;;;;;;11.68;8.70;;;17.60;48.20;;;;;;5127405;27;20100;-82
2022/03/06 14:40:34;;;;;;;12.13;9.73;;;17.80;48.50;;;;;;5127210;27;20118;-82
2022/03/06 14:43:00;;;;;;;11.93;10.18;;;17.70;48.40;;;;;;5104819;27;20027;-82
2022/03/06 14:45:35;;;;;;;13.43;9.30;;;17.50;48.30;;;;;;5130221;27;20027;-82
2022/03/06 14:48:01;;;;;;;13.98;9.32;;;16.90;48.70;;;;;;5109794;27;20035;-81
2022/03/06 14:50:27;;;;;;;13.25;9.65;;;16.00;49.40;;;;;;5120412;27;20036;-82
2022/03/06 14:52:53;;;;;;;12.45;8.70;;;14.40;51.50;;;;;;5124931;27;20015;-82
2022/03/06 14:55:21;;;;;;;12.73;9.02;;;14.20;52.20;;;;;;5111340;27;20474;-82
2022/03/06 14:58:03;;;;;;;12.00;8.77;;;13.50;53.60;;;;;;5125576;27;20023;-81
2022/03/06 15:00:29;;;;;;;12.07;8.85;;;13.00;54.40;;;;;;5090539;28;20114;-81
2022/03/06 15:02:55;;;;;;;14.52;10.15;;;12.60;54.50;;;;;;5106161;27;20009;-82
2022/03/06 15:05:27;;;;;;;14.65;10.00;;;12.50;54.80;;;;;;5119071;27;20114;-82
2022/03/06 15:07:52;;;;;;;16.08;10.27;;;11.90;56.40;;;;;;5125586;27;20078;-83
2022/03/06 15:10:32;;;;;;;18.05;10.70;;;11.60;57.00;;;;;;5110899;27;20106;-82
2022/03/06 15:13:27;;;;;;;15.05;9.88;;;12.10;56.90;;;;;;5119984;27;20032;-82
2022/03/06 15:15:53;;;;;;;20.70;10.75;;;12.60;56.00;;;;;;5123553;27;20031;-79
2022/03/06 15:18:19;;;;;;;12.43;8.95;;;13.20;55.20;;;;;;5121034;27;20059;-79
2022/03/06 15:20:45;;;;;;;13.48;10.93;;;12.60;56.10;;;;;;5120075;27;20063;-81
2022/03/06 15:23:10;;;;;;;19.65;11.15;;;12.70;56.70;;;;;;5121279;27;20031;-82
2022/03/06 15:25:42;;;;;;;14.45;10.25;;;13.90;55.10;;;;;;5125420;27;20020;-81
2022/03/06 15:28:12;;;;;;;15.13;11.45;;;14.20;53.80;;;;;;5123386;27;20470;-80
2022/03/06 15:30:48;;;;;;;17.45;10.82;;;13.20;55.30;;;;;;5120985;27;20076;-81
2022/03/06 15:33:15;;;;;;;15.70;11.15;;;13.60;55.70;;;;;;5121640;27;20038;-79
2022/03/06 15:35:45;;;;;;;13.73;10.57;;;12.60;56.10;;;;;;5105704;27;20452;-80
2022/03/06 15:38:10;;;;;;;16.48;10.90;;;12.50;57.10;;;;;;5103638;27;20039;-79
2022/03/06 15:40:36;;;;;;;13.40;10.02;;;12.60;56.40;;;;;;5120104;27;20096;-80
2022/03/06 15:43:22;;;;;;;15.40;10.10;;;12.50;56.90;;;;;;5105266;27;20020;-81
2022/03/06 15:45:53;;;;;;;17.67;11.18;;;12.80;56.90;;;;;;5104789;27;20149;-82
2022/03/06 15:48:19;;;;;;;17.88;12.07;;;12.60;57.00;;;;;;5121043;27;20107;-83
2022/03/06 15:50:46;;;;;;;16.70;11.07;;;12.20;57.10;;;;;;5104126;27;20066;-82
2022/03/06 15:53:12;;;;;;;16.42;11.77;;;11.30;58.70;;;;;;5127363;27;20023;-82
2022/03/06 15:55:38;;;;;;;21.17;11.40;;;11.60;59.50;;;;;;5101032;28;20034;-82
2022/03/06 15:58:04;;;;;;;14.65;10.90;;;11.70;58.40;;;;;;5102579;27;20111;-82
2022/03/06 16:00:30;;;;;;;15.82;10.50;;;11.10;59.00;;;;;;5126055;27;20541;-82
2022/03/06 16:02:59;;;;;;;19.25;10.18;;;11.40;59.10;;;;;;5129013;27;20106;-83
2022/03/06 16:05:25;;;;;;;12.65;9.75;;;11.10;59.10;;;;;;5118868;27;20027;-82
2022/03/06 16:07:59;;;;;;;19.23;11.68;;;11.20;58.60;;;;;;5105233;27;20033;-82
2022/03/06 16:10:50;;;;;;;17.30;11.35;;;11.20;58.90;;;;;;5100305;27;20034;-82
2022/03/06 16:13:19;;;;;;;14.32;10.98;;;10.80;59.30;;;;;;5121140;27;20023;-81
2022/03/06 16:15:45;;;;;;;16.38;10.65;;;10.60;60.00;;;;;;5118007;27;20028;-82
2022/03/06 16:18:11;;;;;;;14.63;10.93;;;10.40;60.00;;;;;;5118050;27;20083;-82
2022/03/06 16:20:39;;;;;;;15.77;11.02;;;10.60;59.60;;;;;;5120242;27;20031;-82
2022/03/06 16:23:05;;;;;;;13.00;10.13;;;10.30;59.80;;;;;;5127435;27;20098;-82
2022/03/06 16:25:31;;;;;;;14.07;10.48;;;9.70;60.90;;;;;;5116737;27;20558;-81
2022/03/06 16:28:25;;;;;;;17.90;11.23;;;9.10;63.00;;;;;;5120933;27;20068;-83
2022/03/06 16:30:54;;;;;;;16.77;10.43;;;8.90;63.30;;;;;;5124856;27;20126;-83
2022/03/06 16:33:20;;;;;;;19.15;11.25;;;8.60;64.50;;;;;;5102460;28;20031;-82
2022/03/06 16:35:47;;;;;;;18.90;11.77;;;8.20;65.40;;;;;;5121058;27;20056;-80
2022/03/06 16:38:39;;;;;;;19.85;12.40;;;7.90;66.40;;;;;;5120594;27;20050;-80
2022/03/06 16:41:05;;;;;;;14.50;8.57;;;7.70;67.00;;;;;;5095196;27;20035;-81
2022/03/06 16:43:31;;;;;;;21.67;11.77;;;7.50;66.80;;;;;;5101845;28;20024;-80
2022/03/06 16:45:59;;;;;;;23.63;12.48;;;7.40;68.20;;;;;;5108871;27;20401;-80
2022/03/06 16:48:26;;;;;;;16.95;11.60;;;7.30;68.40;;;;;;5111718;27;20077;-80
2022/03/06 16:50:52;;;;;;;21.02;11.90;;;7.30;68.60;;;;;;5116358;27;20515;-80
2022/03/06 16:53:21;;;;;;;17.40;11.98;;;7.20;68.40;;;;;;5120283;27;20023;-80
2022/03/06 16:55:48;;;;;;;17.15;12.00;;;7.10;68.20;;;;;;5104726;28;20039;-80
2022/03/06 16:58:15;;;;;;;16.70;11.02;;;7.00;68.30;;;;;;5122517;27;20023;-81
2022/03/06 17:00:44;;;;;;;17.02;11.52;;;6.90;68.30;;;;;;5100704;28;20028;-79
2022/03/06 17:03:10;;;;;;;19.20;11.57;;;6.90;68.40;;;;;;5122727;27;20023;-80
2022/03/06 17:05:36;;;;;;;21.08;11.55;;;6.90;68.50;;;;;;5100000;28;20124;-80
2022/03/06 17:08:03;;;;;;;19.10;12.15;;;6.90;68.80;;;;;;5120882;28;20493;-80
2022/03/06 17:10:30;;;;;;;19.05;11.40;;;6.90;68.60;;;;;;5105640;28;20416;-80
2022/03/06 17:12:56;;;;;;;18.25;12.05;;;6.90;68.20;;;;;;5100592;28;20565;-81
2022/03/06 17:15:26;;;;;;;18.65;12.23;;;6.80;68.90;;;;;;5127367;27;20465;-81
2022/03/06 17:17:52;;;;;;;17.52;12.00;;;6.80;68.60;;;;;;5121970;28;20026;-81
2022/03/06 17:20:18;;;;;;;20.73;11.63;;;6.80;69.10;;;;;;5118899;27;20114;-81
2022/03/06 17:23:00;;;;;;;17.45;12.10;;;6.80;69.00;;;;;;5120777;27;20176;-80
2022/03/06 17:25:25;;;;;;;20.88;11.80;;;6.80;69.10;;;;;;5110138;28;20055;-80
2022/03/06 17:27:51;;;;;;;20.20;11.88;;;6.80;69.40;;;;;;5120977;27;20023;-80
2022/03/06 17:30:17;;;;;;;19.70;12.63;;;6.80;69.40;;;;;;5132020;28;20046;-80
2022/03/06 17:32:44;;;;;;;21.92;12.10;;;6.80;69.80;;;;;;5123851;28;20038;-80
2022/03/06 17:35:11;;;;;;;20.73;13.02;;;6.80;70.40;;;;;;5130642;28;20023;-81
2022/03/06 17:37:38;;;;;;;18.00;12.05;;;6.80;70.20;;;;;;5139983;28;20042;-81
2022/03/06 17:40:08;;;;;;;22.15;13.68;;;6.80;70.20;;;;;;5138293;27;20030;-79
2022/03/06 17:42:34;;;;;;;18.58;12.02;;;6.70;70.30;;;;;;5112640;27;20027;-80
2022/03/06 17:45:02;;;;;;;17.70;12.40;;;6.70;70.10;;;;;;5124198;28;20439;-79
2022/03/06 17:47:28;;;;;;;20.67;12.43;;;6.70;70.30;;;;;;5104013;28;20016;-80
2022/03/06 17:49:55;;;;;;;22.75;12.93;;;6.60;69.70;;;;;;5117327;28;20490;-80
2022/03/06 17:52:21;;;;;;;20.75;13.23;;;6.60;70.10;;;;;;5110908;27;20015;-80
2022/03/06 17:54:47;;;;;;;20.35;11.65;;;6.60;70.40;;;;;;5121940;27;20098;-79
2022/03/06 17:57:13;;;;;;;20.75;11.60;;;6.50;69.80;;;;;;5124895;27;20138;-80
2022/03/06 17:59:39;;;;;;;17.88;12.20;;;6.50;71.00;;;;;;5130238;27;20034;-80
2022/03/06 18:02:08;;;;;;;17.67;11.90;;;6.50;70.70;;;;;;5104433;27;20028;-80
2022/03/06 18:04:34;;;;;;;15.73;11.43;;;6.40;70.90;;;;;;5126368;27;20034;-80
2022/03/06 18:07:00;;;;;;;20.42;13.13;;;6.40;71.20;;;;;;5119382;27;20023;-81
2022/03/06 18:09:25;;;;;;;23.15;12.23;;;6.40;71.80;;;;;;5127271;27;20514;-80
2022/03/06 18:11:51;;;;;;;20.65;13.45;;;6.40;71.00;;;;;;5123372;27;20031;-80
2022/03/06 18:14:17;;;;;;;20.80;12.45;;;6.40;70.60;;;;;;5121158;27;20087;-81
2022/03/06 18:16:43;;;;;;;19.77;12.77;;;6.40;70.70;;;;;;5126092;27;20038;-80
2022/03/06 18:19:10;;;;;;;20.77;13.23;;;6.30;70.70;;;;;;5121268;27;20397;-80
2022/03/06 18:21:36;;;;;;;17.27;11.65;;;6.40;70.70;;;;;;5122329;27;20027;-80
2022/03/06 18:24:02;;;;;;;18.83;13.35;;;6.40;70.60;;;;;;5122443;27;20020;-80
2022/03/06 18:26:29;;;;;;;24.00;14.20;;;6.40;71.30;;;;;;5108035;27;20505;-80
2022/03/06 18:28:56;;;;;;;18.63;13.98;;;6.30;71.00;;;;;;5108059;27;20015;-80
2022/03/06 18:31:34;;;;;;;21.58;12.80;;;6.30;71.20;;;;;;5120372;27;20122;-80